Quick Links (Output Below):   Max & Min Temps   /   Climate Reports   /   Zone Forecasts
River Forecasts   /   Forestry Forecasts   /   Aviation Forecasts   /   Radars   /   Features

Terminal Aerodrome Forecast (Fayetteville)

Pick a Site:
Arkadelphia | El Dorado | Fayetteville | Fort Smith | Harrison | Highfill | Hot Springs | Jonesboro
Little Rock | Monticello | Mountain Home | Pine Bluff | Texarkana
 Forecast 

KFYV 052326Z 0600/0624 17010KT P6SM VCTS SCT040CB BKN200
     FM060200 17005KT P6SM BKN200
     FM061000 19005KT P6SM OVC015
     FM061700 19012G20KT P6SM SCT025 BKN040=


 Latest METARs (Observations) 
How to Decode METARs
07Z KFYV 060653Z AUTO 16003KT 9SM CLR 23/22 A3002 RMK AO2 SLP149
         T02280217 $
         
05Z KFYV 060453Z AUTO 00000KT 10SM CLR 23/21 A3002 RMK AO2 SLP149
         T02330206 $
         
00Z KFYV 052353Z 17015G19KT 10SM FEW047 FEW055 24/19 A3001 RMK AO2 PK
         WND 17026/2320 LTG DSNT SW-NW SLP149 T02440194 10306 20244
         55001 $
         
***** Today's Observations (Above) *****


12Z KFYV 051153Z 00000KT 7SM CLR 19/19 A3006 RMK AO2 SLP165 T01940194
         10200 20189 53009 $
         
07Z KFYV 050653Z AUTO 00000KT 1 3/4SM BR CLR 20/20 A3003 RMK AO2
         SLP154 T02000200 $
         
06Z KFYV 050553Z AUTO 00000KT 4SM BR CLR 20/20 A3003 RMK AO2 SLP154
         T02000200 10267 20200 402940172 51013 $
         
05Z KFYV 050453Z AUTO 00000KT 1 1/4SM BR CLR 21/21 A3002 RMK AO2
         SLP150 T02060206 $
         
04Z KFYV 050353Z AUTO 00000KT 5SM BR CLR 21/21 A3001 RMK AO2 SLP150
         T02110211 $
         
01Z KFYV 050053Z AUTO 20003KT 10SM FEW060 25/21 A2996 RMK AO2 SLP132
         T02500211 $
         
***** Yesterday's Observations (Above) *****


Back to Main Page
http://www.srh.noaa.gov/lzk/qfcst.php

USA.gov is the U.S. government's official web portal to all federal, state and local government web resources and services.